»·PEaware :: N35MU KSBD-KEMT

N35MU :: KSBD-KEMT

FLIGHT INFORMATION

Flight Status: Arrived
Operator: Privately registered:
United States
More flights under this callsign
Pilot: Tim M. (20242)
Aircraft: BEECH AIRCRAFT BARON
(BE58)
More flights by this aircraft type
Origin: KSBD San Bernardino Intl
United States
Destination: KEMT El Monte
United States
More flights between these airports :: More routes between these airports
Route: DIR
File this flight plan on PilotEdge
Remarks: VFR
Altitude:
(Current/Filed)
7,500ft
Speed:
(Current/Filed)
120kts
Departed: 05-Sep-18 03:00 PM
Arrived: 05-Sep-18 04:08 PM
Distance/Time
Traveled:
131nm/1:08
Distance/Time
To Go:
Arrived

Flight Plot

Page will automatically refresh every two minutes.

Flight plan parsing failed; only flown route is shown


Map Options




Map Legend


Flown Route
Filed Route
Departure Airport
Arrival Airport
Navaid (VOR, NDB)
Fix

Horizontal Profiles

Position Reports

Time Latitude Longitude Heading Altitude Ground
Speed
05-Sep-18 14:46 34.102166 -117.224730 93 1143ft 0kts
05-Sep-18 14:47 34.102166 -117.224730 93 1143ft 0kts
05-Sep-18 14:48 34.102166 -117.224730 93 1143ft 0kts
05-Sep-18 14:49 34.102166 -117.224730 93 1143ft 0kts
05-Sep-18 14:50 34.102166 -117.224730 93 1143ft 0kts
05-Sep-18 14:51 34.102166 -117.224730 93 1143ft 0kts
05-Sep-18 14:52 34.102166 -117.224730 93 1143ft 0kts
05-Sep-18 14:53 34.102166 -117.224730 93 1143ft 0kts
05-Sep-18 14:54 34.102166 -117.224730 93 1143ft 0kts
05-Sep-18 14:55 34.102166 -117.224730 93 1143ft 0kts
05-Sep-18 14:56 34.102166 -117.224730 93 1143ft 0kts
05-Sep-18 14:57 34.102166 -117.224730 93 1143ft 0kts
05-Sep-18 14:58 34.100787 -117.224714 124 1143ft 12kts
05-Sep-18 14:59 34.101125 -117.221537 72 1150ft 13kts
05-Sep-18 15:00 34.100825 -117.219744 161 1156ft 0kts
05-Sep-18 15:01 34.099665 -117.220009 248 1155ft 18kts
05-Sep-18 15:02 34.091217 -117.244988 238 1431ft 107kts
05-Sep-18 15:03 34.072421 -117.268127 209 2816ft 105kts
05-Sep-18 15:04 34.044233 -117.282733 198 3691ft 142kts
05-Sep-18 15:05 34.006125 -117.286330 163 5006ft 144kts
05-Sep-18 15:06 33.973944 -117.259338 144 6195ft 142kts
05-Sep-18 15:07 33.937885 -117.231091 147 6629ft 173kts
05-Sep-18 15:08 33.895627 -117.220476 234 6620ft 182kts
05-Sep-18 15:09 33.909804 -117.275881 299 6722ft 178kts
05-Sep-18 15:10 33.930957 -117.321375 299 7340ft 183kts
05-Sep-18 15:11 33.956740 -117.376632 299 7005ft 187kts
05-Sep-18 15:12 33.981530 -117.429927 299 7008ft 184kts
05-Sep-18 15:13 34.006308 -117.483269 299 7008ft 184kts
05-Sep-18 15:14 34.044497 -117.519882 336 7008ft 184kts
05-Sep-18 15:15 34.078221 -117.562690 299 7008ft 184kts
05-Sep-18 15:16 34.091042 -117.617988 271 6995ft 151kts
05-Sep-18 15:17 34.090929 -117.664749 269 7006ft 136kts
05-Sep-18 15:18 34.090419 -117.707945 268 6655ft 141kts
05-Sep-18 15:19 34.089802 -117.760023 268 5112ft 139kts
05-Sep-18 15:20 34.089231 -117.803011 268 3510ft 119kts
05-Sep-18 15:21 34.088698 -117.841765 269 3958ft 140kts
05-Sep-18 15:22 34.088041 -117.892338 268 3941ft 158kts
05-Sep-18 15:23 34.087375 -117.939108 268 3766ft 141kts
05-Sep-18 15:24 34.086694 -117.987400 268 2771ft 148kts
05-Sep-18 15:25 34.093088 -118.033604 277 1951ft 109kts
05-Sep-18 15:26 34.089884 -118.067700 216 1018ft 114kts
05-Sep-18 15:38 34.102166 -117.224730 93 1146ft 0kts
05-Sep-18 15:39 34.102166 -117.224730 93 1146ft 0kts
05-Sep-18 15:40 34.102166 -117.224730 93 1146ft 0kts
05-Sep-18 15:41 34.102165 -117.224633 84 1146ft 4kts
05-Sep-18 15:42 34.100746 -117.223182 88 1149ft 10kts
05-Sep-18 15:43 34.101029 -117.221865 65 1152ft 7kts
05-Sep-18 15:44 34.100850 -117.219740 164 1159ft 0kts
05-Sep-18 15:45 34.099723 -117.219807 225 1158ft 8kts
05-Sep-18 15:46 34.098995 -117.221914 263 1151ft 25kts
05-Sep-18 15:47 34.092981 -117.242243 248 1674ft 71kts
05-Sep-18 15:48 34.090410 -117.270276 264 1989ft 113kts
05-Sep-18 15:49 34.087517 -117.310867 265 1985ft 125kts
05-Sep-18 15:50 34.093340 -117.351961 272 1985ft 125kts
05-Sep-18 15:51 34.093661 -117.390867 269 2466ft 106kts
05-Sep-18 15:52 34.093314 -117.423179 268 3453ft 89kts
05-Sep-18 15:53 34.093006 -117.456093 269 3935ft 116kts
05-Sep-18 15:54 34.092707 -117.495330 269 3998ft 121kts
05-Sep-18 15:55 34.092310 -117.534388 269 3998ft 122kts
05-Sep-18 15:56 34.091869 -117.574916 269 3998ft 121kts
05-Sep-18 15:57 34.091420 -117.615216 269 3998ft 122kts
05-Sep-18 15:58 34.090951 -117.655837 268 3998ft 122kts
05-Sep-18 15:59 34.090466 -117.696840 268 3998ft 122kts
05-Sep-18 16:00 34.089968 -117.737847 268 3998ft 122kts
05-Sep-18 16:01 34.089456 -117.778711 268 3998ft 122kts
05-Sep-18 16:02 34.088975 -117.818475 268 3996ft 110kts
05-Sep-18 16:03 34.088510 -117.856501 268 3609ft 115kts
05-Sep-18 16:04 34.088028 -117.893294 268 3208ft 107kts
05-Sep-18 16:05 34.087543 -117.928546 268 2813ft 106kts
05-Sep-18 16:06 34.087039 -117.964289 268 2413ft 107kts
05-Sep-18 16:07 34.088861 -117.999542 303 2008ft 107kts
05-Sep-18 16:08 34.105990 -118.025740 300 1555ft 78kts
05-Sep-18 16:08 34.098058 -118.035110 139 737ft 67kts
05-Sep-18 16:09 34.085482 -118.034708 155 287ft 16kts
05-Sep-18 16:10 34.085407 -118.034652 136 287ft 0kts
05-Sep-18 16:12 34.084372 -118.033560 206 289ft 0kts
05-Sep-18 16:13 34.084371 -118.033560 206 289ft 0kts
05-Sep-18 16:13 34.084371 -118.033560 206 289ft 0kts
05-Sep-18 16:14 34.432569 -119.835085 71 14ft 0kts
05-Sep-18 16:15 34.432569 -119.835085 71 14ft 0kts
05-Sep-18 16:16 34.432569 -119.835085 71 14ft 0kts
05-Sep-18 16:17 34.432569 -119.835085 71 14ft 0kts
05-Sep-18 16:18 34.432569 -119.835085 71 14ft 0kts
05-Sep-18 16:19 34.432569 -119.835085 71 14ft 0kts
05-Sep-18 16:20 34.432569 -119.835085 71 14ft 0kts
05-Sep-18 16:21 34.432569 -119.835085 71 14ft 0kts

Navigation Log

Ident Type
Flight plan parsing failed, navigation log unavailable